sensor_id;sensor_type;location;lat;lon;timestamp;P1;durP1;ratioP1;P2;durP2;ratioP2
23258;SDS011;11798;51.528;7.240;2023-05-07T00:01:55;24.13;;;19.23;;
23258;SDS011;11798;51.528;7.240;2023-05-07T00:04:21;23.57;;;18.87;;
23258;SDS011;11798;51.528;7.240;2023-05-07T00:06:47;23.83;;;19.20;;
23258;SDS011;11798;51.528;7.240;2023-05-07T00:09:13;23.13;;;18.80;;
23258;SDS011;11798;51.528;7.240;2023-05-07T00:11:39;23.73;;;19.20;;
23258;SDS011;11798;51.528;7.240;2023-05-07T00:14:05;24.43;;;18.20;;
23258;SDS011;11798;51.528;7.240;2023-05-07T00:16:31;23.50;;;19.77;;
23258;SDS011;11798;51.528;7.240;2023-05-07T00:18:56;25.83;;;19.60;;
23258;SDS011;11798;51.528;7.240;2023-05-07T00:21:22;20.97;;;17.60;;
23258;SDS011;11798;51.528;7.240;2023-05-07T00:23:47;21.70;;;17.50;;
23258;SDS011;11798;51.528;7.240;2023-05-07T00:26:13;24.10;;;18.83;;
23258;SDS011;11798;51.528;7.240;2023-05-07T00:28:39;25.63;;;20.37;;
23258;SDS011;11798;51.528;7.240;2023-05-07T00:31:04;24.80;;;20.90;;
23258;SDS011;11798;51.528;7.240;2023-05-07T00:33:30;28.33;;;21.27;;
23258;SDS011;11798;51.528;7.240;2023-05-07T00:35:55;22.90;;;18.73;;
23258;SDS011;11798;51.528;7.240;2023-05-07T00:38:21;21.63;;;18.53;;
23258;SDS011;11798;51.528;7.240;2023-05-07T00:40:47;25.03;;;19.17;;
23258;SDS011;11798;51.528;7.240;2023-05-07T00:43:12;22.83;;;19.80;;
23258;SDS011;11798;51.528;7.240;2023-05-07T00:45:38;25.20;;;20.70;;
23258;SDS011;11798;51.528;7.240;2023-05-07T00:48:04;33.80;;;25.90;;
23258;SDS011;11798;51.528;7.240;2023-05-07T00:50:30;35.97;;;27.93;;
23258;SDS011;11798;51.528;7.240;2023-05-07T00:52:56;36.57;;;28.90;;
23258;SDS011;11798;51.528;7.240;2023-05-07T00:55:23;34.73;;;28.30;;
23258;SDS011;11798;51.528;7.240;2023-05-07T00:57:49;35.57;;;27.93;;
23258;SDS011;11798;51.528;7.240;2023-05-07T01:00:16;34.77;;;26.43;;
23258;SDS011;11798;51.528;7.240;2023-05-07T01:02:43;37.93;;;27.33;;
23258;SDS011;11798;51.528;7.240;2023-05-07T01:05:12;33.17;;;25.47;;
23258;SDS011;11798;51.528;7.240;2023-05-07T01:07:40;41.53;;;31.77;;
23258;SDS011;11798;51.528;7.240;2023-05-07T01:10:07;40.87;;;31.10;;
23258;SDS011;11798;51.528;7.240;2023-05-07T01:12:35;41.20;;;32.17;;
23258;SDS011;11798;51.528;7.240;2023-05-07T01:15:02;40.67;;;31.60;;
23258;SDS011;11798;51.528;7.240;2023-05-07T01:17:29;39.80;;;32.43;;
23258;SDS011;11798;51.528;7.240;2023-05-07T01:20:02;42.10;;;32.80;;
23258;SDS011;11798;51.528;7.240;2023-05-07T01:22:32;42.77;;;33.50;;
23258;SDS011;11798;51.528;7.240;2023-05-07T01:25:01;40.50;;;32.27;;
23258;SDS011;11798;51.528;7.240;2023-05-07T01:27:27;39.53;;;32.10;;
23258;SDS011;11798;51.528;7.240;2023-05-07T01:29:53;42.77;;;34.03;;
23258;SDS011;11798;51.528;7.240;2023-05-07T01:32:21;42.73;;;32.97;;
23258;SDS011;11798;51.528;7.240;2023-05-07T01:34:52;42.73;;;32.33;;
23258;SDS011;11798;51.528;7.240;2023-05-07T01:37:18;37.90;;;32.63;;
23258;SDS011;11798;51.528;7.240;2023-05-07T01:39:45;38.50;;;31.77;;
23258;SDS011;11798;51.528;7.240;2023-05-07T01:42:12;42.37;;;32.40;;
23258;SDS011;11798;51.528;7.240;2023-05-07T01:44:38;42.17;;;33.27;;
23258;SDS011;11798;51.528;7.240;2023-05-07T01:47:04;39.47;;;31.57;;
23258;SDS011;11798;51.528;7.240;2023-05-07T01:49:31;41.50;;;33.17;;
23258;SDS011;11798;51.528;7.240;2023-05-07T01:51:57;39.03;;;31.53;;
23258;SDS011;11798;51.528;7.240;2023-05-07T01:54:26;37.60;;;30.43;;
23258;SDS011;11798;51.528;7.240;2023-05-07T01:56:52;40.43;;;32.40;;
23258;SDS011;11798;51.528;7.240;2023-05-07T01:59:18;40.73;;;33.27;;
23258;SDS011;11798;51.528;7.240;2023-05-07T02:01:44;43.10;;;33.80;;
23258;SDS011;11798;51.528;7.240;2023-05-07T02:04:10;38.87;;;31.70;;
23258;SDS011;11798;51.528;7.240;2023-05-07T02:06:35;41.43;;;33.50;;
23258;SDS011;11798;51.528;7.240;2023-05-07T02:09:01;40.83;;;32.03;;
23258;SDS011;11798;51.528;7.240;2023-05-07T02:11:26;40.83;;;32.07;;
23258;SDS011;11798;51.528;7.240;2023-05-07T02:13:52;39.93;;;31.67;;
23258;SDS011;11798;51.528;7.240;2023-05-07T02:16:18;38.83;;;32.13;;
23258;SDS011;11798;51.528;7.240;2023-05-07T02:18:44;39.80;;;32.77;;
23258;SDS011;11798;51.528;7.240;2023-05-07T02:21:10;39.30;;;30.57;;
23258;SDS011;11798;51.528;7.240;2023-05-07T02:23:36;39.87;;;31.80;;
23258;SDS011;11798;51.528;7.240;2023-05-07T02:26:01;41.97;;;33.00;;
23258;SDS011;11798;51.528;7.240;2023-05-07T02:28:28;43.37;;;34.07;;
23258;SDS011;11798;51.528;7.240;2023-05-07T02:30:54;42.23;;;33.33;;
23258;SDS011;11798;51.528;7.240;2023-05-07T02:33:20;40.70;;;32.90;;
23258;SDS011;11798;51.528;7.240;2023-05-07T02:35:45;46.83;;;34.50;;
23258;SDS011;11798;51.528;7.240;2023-05-07T02:38:11;42.07;;;33.23;;
23258;SDS011;11798;51.528;7.240;2023-05-07T02:40:37;41.00;;;32.83;;
23258;SDS011;11798;51.528;7.240;2023-05-07T02:43:05;41.40;;;33.23;;
23258;SDS011;11798;51.528;7.240;2023-05-07T02:45:31;42.50;;;33.27;;
23258;SDS011;11798;51.528;7.240;2023-05-07T02:47:57;40.57;;;32.40;;
23258;SDS011;11798;51.528;7.240;2023-05-07T02:50:23;42.10;;;33.80;;
23258;SDS011;11798;51.528;7.240;2023-05-07T02:52:49;45.50;;;35.73;;
23258;SDS011;11798;51.528;7.240;2023-05-07T02:55:15;44.87;;;35.73;;
23258;SDS011;11798;51.528;7.240;2023-05-07T02:57:40;42.87;;;35.07;;
23258;SDS011;11798;51.528;7.240;2023-05-07T03:02:42;46.67;;;36.73;;
23258;SDS011;11798;51.528;7.240;2023-05-07T03:05:08;49.07;;;36.67;;
23258;SDS011;11798;51.528;7.240;2023-05-07T03:07:35;43.83;;;35.90;;
23258;SDS011;11798;51.528;7.240;2023-05-07T03:10:01;50.97;;;39.80;;
23258;SDS011;11798;51.528;7.240;2023-05-07T03:12:27;50.27;;;38.33;;
23258;SDS011;11798;51.528;7.240;2023-05-07T03:14:53;54.13;;;38.37;;
23258;SDS011;11798;51.528;7.240;2023-05-07T03:17:18;55.13;;;40.47;;
23258;SDS011;11798;51.528;7.240;2023-05-07T03:19:45;59.10;;;41.60;;
23258;SDS011;11798;51.528;7.240;2023-05-07T03:22:10;63.77;;;42.20;;
23258;SDS011;11798;51.528;7.240;2023-05-07T03:24:36;58.70;;;42.47;;
23258;SDS011;11798;51.528;7.240;2023-05-07T03:27:02;57.53;;;41.27;;
23258;SDS011;11798;51.528;7.240;2023-05-07T03:29:27;55.73;;;40.47;;
23258;SDS011;11798;51.528;7.240;2023-05-07T03:31:53;62.93;;;43.73;;
23258;SDS011;11798;51.528;7.240;2023-05-07T03:34:18;54.40;;;39.60;;
23258;SDS011;11798;51.528;7.240;2023-05-07T03:36:47;57.87;;;41.87;;
23258;SDS011;11798;51.528;7.240;2023-05-07T03:39:13;52.60;;;38.73;;
23258;SDS011;11798;51.528;7.240;2023-05-07T03:41:39;58.90;;;41.07;;
23258;SDS011;11798;51.528;7.240;2023-05-07T03:44:05;56.53;;;40.03;;
23258;SDS011;11798;51.528;7.240;2023-05-07T03:46:31;53.50;;;39.67;;
23258;SDS011;11798;51.528;7.240;2023-05-07T03:48:57;57.50;;;40.07;;
23258;SDS011;11798;51.528;7.240;2023-05-07T03:51:23;54.57;;;39.63;;
23258;SDS011;11798;51.528;7.240;2023-05-07T03:53:49;58.33;;;39.97;;
23258;SDS011;11798;51.528;7.240;2023-05-07T03:56:17;58.73;;;41.13;;
23258;SDS011;11798;51.528;7.240;2023-05-07T03:58:43;59.00;;;40.23;;
23258;SDS011;11798;51.528;7.240;2023-05-07T04:01:09;62.70;;;41.47;;
23258;SDS011;11798;51.528;7.240;2023-05-07T04:03:34;56.27;;;39.63;;
23258;SDS011;11798;51.528;7.240;2023-05-07T04:06:00;59.83;;;40.37;;
23258;SDS011;11798;51.528;7.240;2023-05-07T04:08:26;53.03;;;38.77;;
23258;SDS011;11798;51.528;7.240;2023-05-07T04:10:57;60.03;;;39.87;;
23258;SDS011;11798;51.528;7.240;2023-05-07T04:13:23;51.80;;;38.63;;
23258;SDS011;11798;51.528;7.240;2023-05-07T04:15:49;55.00;;;38.40;;
23258;SDS011;11798;51.528;7.240;2023-05-07T04:18:15;50.13;;;36.70;;
23258;SDS011;11798;51.528;7.240;2023-05-07T04:20:41;48.83;;;36.23;;
23258;SDS011;11798;51.528;7.240;2023-05-07T04:23:07;48.43;;;35.47;;
23258;SDS011;11798;51.528;7.240;2023-05-07T04:25:33;44.37;;;33.70;;
23258;SDS011;11798;51.528;7.240;2023-05-07T04:27:58;44.57;;;33.33;;
23258;SDS011;11798;51.528;7.240;2023-05-07T04:30:24;44.90;;;33.60;;
23258;SDS011;11798;51.528;7.240;2023-05-07T04:32:50;37.43;;;30.13;;
23258;SDS011;11798;51.528;7.240;2023-05-07T04:35:16;36.17;;;30.63;;
23258;SDS011;11798;51.528;7.240;2023-05-07T04:37:42;35.97;;;29.97;;
23258;SDS011;11798;51.528;7.240;2023-05-07T04:40:08;35.30;;;28.63;;
23258;SDS011;11798;51.528;7.240;2023-05-07T04:42:34;35.47;;;27.80;;
23258;SDS011;11798;51.528;7.240;2023-05-07T04:45:00;33.33;;;27.40;;
23258;SDS011;11798;51.528;7.240;2023-05-07T04:47:27;33.63;;;28.10;;
23258;SDS011;11798;51.528;7.240;2023-05-07T04:49:52;32.60;;;26.20;;
23258;SDS011;11798;51.528;7.240;2023-05-07T04:52:18;30.70;;;23.73;;
23258;SDS011;11798;51.528;7.240;2023-05-07T04:54:43;28.70;;;24.10;;
23258;SDS011;11798;51.528;7.240;2023-05-07T04:57:09;29.50;;;24.43;;
23258;SDS011;11798;51.528;7.240;2023-05-07T04:59:35;28.50;;;23.50;;
23258;SDS011;11798;51.528;7.240;2023-05-07T05:02:00;24.83;;;21.63;;
23258;SDS011;11798;51.528;7.240;2023-05-07T05:04:26;26.20;;;22.00;;
23258;SDS011;11798;51.528;7.240;2023-05-07T05:06:52;22.83;;;20.43;;
23258;SDS011;11798;51.528;7.240;2023-05-07T05:09:17;25.23;;;22.13;;
23258;SDS011;11798;51.528;7.240;2023-05-07T05:11:43;25.67;;;21.83;;
23258;SDS011;11798;51.528;7.240;2023-05-07T05:14:09;24.13;;;21.53;;
23258;SDS011;11798;51.528;7.240;2023-05-07T05:16:34;26.53;;;21.37;;
23258;SDS011;11798;51.528;7.240;2023-05-07T05:19:01;24.20;;;21.47;;
23258;SDS011;11798;51.528;7.240;2023-05-07T05:21:27;24.90;;;22.30;;
23258;SDS011;11798;51.528;7.240;2023-05-07T05:23:52;26.33;;;22.53;;
23258;SDS011;11798;51.528;7.240;2023-05-07T05:26:18;26.47;;;20.93;;
23258;SDS011;11798;51.528;7.240;2023-05-07T05:28:46;27.20;;;21.53;;
23258;SDS011;11798;51.528;7.240;2023-05-07T05:31:12;24.13;;;20.93;;
23258;SDS011;11798;51.528;7.240;2023-05-07T05:33:37;20.57;;;18.37;;
23258;SDS011;11798;51.528;7.240;2023-05-07T05:36:03;24.93;;;20.83;;
23258;SDS011;11798;51.528;7.240;2023-05-07T05:38:29;21.93;;;19.53;;
23258;SDS011;11798;51.528;7.240;2023-05-07T05:40:55;21.40;;;18.83;;
23258;SDS011;11798;51.528;7.240;2023-05-07T05:43:20;21.80;;;19.60;;
23258;SDS011;11798;51.528;7.240;2023-05-07T05:45:46;22.43;;;20.03;;
23258;SDS011;11798;51.528;7.240;2023-05-07T05:48:11;21.87;;;18.83;;
23258;SDS011;11798;51.528;7.240;2023-05-07T05:50:37;22.90;;;20.40;;
23258;SDS011;11798;51.528;7.240;2023-05-07T05:53:03;22.23;;;19.10;;
23258;SDS011;11798;51.528;7.240;2023-05-07T05:55:28;22.97;;;20.53;;
23258;SDS011;11798;51.528;7.240;2023-05-07T05:57:54;21.47;;;19.27;;
23258;SDS011;11798;51.528;7.240;2023-05-07T06:00:21;23.80;;;20.17;;
23258;SDS011;11798;51.528;7.240;2023-05-07T06:02:47;21.70;;;19.47;;
23258;SDS011;11798;51.528;7.240;2023-05-07T06:05:13;23.50;;;21.00;;
23258;SDS011;11798;51.528;7.240;2023-05-07T06:07:39;23.87;;;21.37;;
23258;SDS011;11798;51.528;7.240;2023-05-07T06:10:05;25.30;;;22.67;;
23258;SDS011;11798;51.528;7.240;2023-05-07T06:12:31;23.40;;;20.93;;
23258;SDS011;11798;51.528;7.240;2023-05-07T06:14:57;21.60;;;19.40;;
23258;SDS011;11798;51.528;7.240;2023-05-07T06:17:22;20.47;;;18.43;;
23258;SDS011;11798;51.528;7.240;2023-05-07T06:19:48;20.13;;;18.07;;
23258;SDS011;11798;51.528;7.240;2023-05-07T06:22:14;19.37;;;17.23;;
23258;SDS011;11798;51.528;7.240;2023-05-07T06:24:40;19.97;;;17.77;;
23258;SDS011;11798;51.528;7.240;2023-05-07T06:27:05;17.73;;;16.00;;
23258;SDS011;11798;51.528;7.240;2023-05-07T06:29:31;16.47;;;14.83;;
23258;SDS011;11798;51.528;7.240;2023-05-07T06:32:05;14.03;;;12.63;;
23258;SDS011;11798;51.528;7.240;2023-05-07T06:34:35;13.90;;;12.57;;
23258;SDS011;11798;51.528;7.240;2023-05-07T06:37:01;12.07;;;10.87;;
23258;SDS011;11798;51.528;7.240;2023-05-07T06:39:27;12.13;;;10.77;;
23258;SDS011;11798;51.528;7.240;2023-05-07T06:41:53;12.97;;;11.67;;
23258;SDS011;11798;51.528;7.240;2023-05-07T06:44:18;12.07;;;10.40;;
23258;SDS011;11798;51.528;7.240;2023-05-07T06:46:44;10.47;;;8.47;;
23258;SDS011;11798;51.528;7.240;2023-05-07T06:49:10;10.33;;;8.43;;
23258;SDS011;11798;51.528;7.240;2023-05-07T06:51:37;11.07;;;8.13;;
23258;SDS011;11798;51.528;7.240;2023-05-07T06:54:02;10.97;;;8.60;;
23258;SDS011;11798;51.528;7.240;2023-05-07T06:56:29;10.03;;;8.23;;
23258;SDS011;11798;51.528;7.240;2023-05-07T06:58:55;10.53;;;8.07;;
23258;SDS011;11798;51.528;7.240;2023-05-07T07:01:21;8.80;;;7.87;;
23258;SDS011;11798;51.528;7.240;2023-05-07T07:03:46;9.10;;;7.70;;
23258;SDS011;11798;51.528;7.240;2023-05-07T07:06:12;11.50;;;7.80;;
23258;SDS011;11798;51.528;7.240;2023-05-07T07:08:38;8.37;;;7.57;;
23258;SDS011;11798;51.528;7.240;2023-05-07T07:11:06;9.30;;;7.63;;
23258;SDS011;11798;51.528;7.240;2023-05-07T07:13:33;8.63;;;7.37;;
23258;SDS011;11798;51.528;7.240;2023-05-07T07:15:58;7.87;;;6.40;;
23258;SDS011;11798;51.528;7.240;2023-05-07T07:18:25;8.73;;;5.83;;
23258;SDS011;11798;51.528;7.240;2023-05-07T07:20:50;9.90;;;6.90;;
23258;SDS011;11798;51.528;7.240;2023-05-07T07:23:16;7.03;;;6.37;;
23258;SDS011;11798;51.528;7.240;2023-05-07T07:25:41;6.60;;;5.90;;
23258;SDS011;11798;51.528;7.240;2023-05-07T07:28:07;7.27;;;6.57;;
23258;SDS011;11798;51.528;7.240;2023-05-07T07:30:33;8.13;;;6.23;;
23258;SDS011;11798;51.528;7.240;2023-05-07T07:32:58;6.73;;;5.37;;
23258;SDS011;11798;51.528;7.240;2023-05-07T07:35:31;7.37;;;6.30;;
23258;SDS011;11798;51.528;7.240;2023-05-07T07:37:57;8.60;;;5.67;;
23258;SDS011;11798;51.528;7.240;2023-05-07T07:40:23;8.93;;;6.53;;
23258;SDS011;11798;51.528;7.240;2023-05-07T07:42:50;6.20;;;5.60;;
23258;SDS011;11798;51.528;7.240;2023-05-07T07:45:16;7.60;;;6.50;;
23258;SDS011;11798;51.528;7.240;2023-05-07T07:47:41;7.67;;;6.17;;
23258;SDS011;11798;51.528;7.240;2023-05-07T07:50:07;6.70;;;6.10;;
23258;SDS011;11798;51.528;7.240;2023-05-07T07:52:33;6.00;;;5.43;;
23258;SDS011;11798;51.528;7.240;2023-05-07T07:54:59;7.53;;;6.13;;
23258;SDS011;11798;51.528;7.240;2023-05-07T07:57:25;9.97;;;5.87;;
23258;SDS011;11798;51.528;7.240;2023-05-07T07:59:51;9.20;;;7.13;;
23258;SDS011;11798;51.528;7.240;2023-05-07T08:02:16;8.90;;;6.60;;
23258;SDS011;11798;51.528;7.240;2023-05-07T08:04:42;8.90;;;6.90;;
23258;SDS011;11798;51.528;7.240;2023-05-07T08:07:09;10.23;;;7.73;;
23258;SDS011;11798;51.528;7.240;2023-05-07T08:09:35;8.87;;;7.97;;
23258;SDS011;11798;51.528;7.240;2023-05-07T08:12:01;8.47;;;7.67;;
23258;SDS011;11798;51.528;7.240;2023-05-07T08:14:27;8.77;;;7.67;;
23258;SDS011;11798;51.528;7.240;2023-05-07T08:16:53;9.23;;;8.40;;
23258;SDS011;11798;51.528;7.240;2023-05-07T08:19:19;9.87;;;8.70;;
23258;SDS011;11798;51.528;7.240;2023-05-07T08:21:46;10.07;;;8.80;;
23258;SDS011;11798;51.528;7.240;2023-05-07T08:24:15;10.50;;;8.80;;
23258;SDS011;11798;51.528;7.240;2023-05-07T08:26:42;11.40;;;9.27;;
23258;SDS011;11798;51.528;7.240;2023-05-07T08:29:08;9.03;;;8.23;;
23258;SDS011;11798;51.528;7.240;2023-05-07T08:31:34;10.27;;;9.27;;
23258;SDS011;11798;51.528;7.240;2023-05-07T08:34:00;10.27;;;8.13;;
23258;SDS011;11798;51.528;7.240;2023-05-07T08:36:26;9.70;;;8.47;;
23258;SDS011;11798;51.528;7.240;2023-05-07T08:38:52;10.43;;;9.10;;
23258;SDS011;11798;51.528;7.240;2023-05-07T08:41:18;9.37;;;8.47;;
23258;SDS011;11798;51.528;7.240;2023-05-07T08:43:47;9.80;;;8.90;;
23258;SDS011;11798;51.528;7.240;2023-05-07T08:46:18;12.00;;;9.67;;
23258;SDS011;11798;51.528;7.240;2023-05-07T08:48:47;10.37;;;9.27;;
23258;SDS011;11798;51.528;7.240;2023-05-07T08:51:15;10.20;;;9.17;;
23258;SDS011;11798;51.528;7.240;2023-05-07T08:53:43;12.40;;;9.80;;
23258;SDS011;11798;51.528;7.240;2023-05-07T08:56:09;11.50;;;10.10;;
23258;SDS011;11798;51.528;7.240;2023-05-07T08:58:35;10.67;;;9.53;;
23258;SDS011;11798;51.528;7.240;2023-05-07T09:01:02;11.37;;;8.87;;
23258;SDS011;11798;51.528;7.240;2023-05-07T09:03:32;11.67;;;9.73;;
23258;SDS011;11798;51.528;7.240;2023-05-07T09:05:58;12.97;;;10.03;;
23258;SDS011;11798;51.528;7.240;2023-05-07T09:08:24;13.77;;;10.07;;
23258;SDS011;11798;51.528;7.240;2023-05-07T09:10:51;12.73;;;10.40;;
23258;SDS011;11798;51.528;7.240;2023-05-07T09:13:17;14.63;;;10.37;;
23258;SDS011;11798;51.528;7.240;2023-05-07T09:15:43;12.23;;;11.00;;
23258;SDS011;11798;51.528;7.240;2023-05-07T09:18:08;12.00;;;10.73;;
23258;SDS011;11798;51.528;7.240;2023-05-07T09:20:36;17.20;;;11.90;;
23258;SDS011;11798;51.528;7.240;2023-05-07T09:23:02;13.83;;;10.97;;
23258;SDS011;11798;51.528;7.240;2023-05-07T09:25:31;12.73;;;11.20;;
23258;SDS011;11798;51.528;7.240;2023-05-07T09:27:58;12.63;;;10.37;;
23258;SDS011;11798;51.528;7.240;2023-05-07T09:30:29;12.93;;;11.23;;
23258;SDS011;11798;51.528;7.240;2023-05-07T09:32:58;12.93;;;11.37;;
23258;SDS011;11798;51.528;7.240;2023-05-07T09:35:25;15.73;;;11.73;;
23258;SDS011;11798;51.528;7.240;2023-05-07T09:37:57;12.40;;;10.40;;
23258;SDS011;11798;51.528;7.240;2023-05-07T09:40:24;12.20;;;9.97;;
23258;SDS011;11798;51.528;7.240;2023-05-07T09:42:52;10.53;;;9.53;;
23258;SDS011;11798;51.528;7.240;2023-05-07T09:45:25;11.50;;;9.83;;
23258;SDS011;11798;51.528;7.240;2023-05-07T09:47:53;9.60;;;8.53;;
23258;SDS011;11798;51.528;7.240;2023-05-07T09:50:20;12.33;;;10.30;;
23258;SDS011;11798;51.528;7.240;2023-05-07T09:52:52;12.53;;;11.23;;
23258;SDS011;11798;51.528;7.240;2023-05-07T09:55:20;11.27;;;10.07;;
23258;SDS011;11798;51.528;7.240;2023-05-07T09:57:46;14.10;;;12.60;;
23258;SDS011;11798;51.528;7.240;2023-05-07T10:00:15;15.13;;;12.27;;
23258;SDS011;11798;51.528;7.240;2023-05-07T10:02:42;13.37;;;11.47;;
23258;SDS011;11798;51.528;7.240;2023-05-07T10:05:14;13.97;;;12.33;;
23258;SDS011;11798;51.528;7.240;2023-05-07T10:07:40;13.80;;;12.40;;
23258;SDS011;11798;51.528;7.240;2023-05-07T10:10:06;11.43;;;10.23;;
23258;SDS011;11798;51.528;7.240;2023-05-07T10:12:32;11.40;;;10.17;;
23258;SDS011;11798;51.528;7.240;2023-05-07T10:15:05;10.60;;;9.53;;
23258;SDS011;11798;51.528;7.240;2023-05-07T10:17:33;10.70;;;8.90;;
23258;SDS011;11798;51.528;7.240;2023-05-07T10:20:00;12.30;;;11.10;;
23258;SDS011;11798;51.528;7.240;2023-05-07T10:22:26;10.73;;;9.63;;
23258;SDS011;11798;51.528;7.240;2023-05-07T10:24:53;9.80;;;8.87;;
23258;SDS011;11798;51.528;7.240;2023-05-07T10:27:22;11.35;;;8.07;;
23258;SDS011;11798;51.528;7.240;2023-05-07T10:32:40;10.30;;;8.70;;
23258;SDS011;11798;51.528;7.240;2023-05-07T10:35:14;10.25;;;9.25;;
23258;SDS011;11798;51.528;7.240;2023-05-07T10:37:44;9.57;;;7.90;;
23258;SDS011;11798;51.528;7.240;2023-05-07T10:40:11;9.32;;;7.75;;
23258;SDS011;11798;51.528;7.240;2023-05-07T10:42:37;11.47;;;9.80;;
23258;SDS011;11798;51.528;7.240;2023-05-07T10:45:13;9.88;;;8.90;;
23258;SDS011;11798;51.528;7.240;2023-05-07T10:50:36;8.85;;;7.93;;
23258;SDS011;11798;51.528;7.240;2023-05-07T10:55:50;10.77;;;8.23;;
23258;SDS011;11798;51.528;7.240;2023-05-07T10:58:27;9.48;;;8.35;;
23258;SDS011;11798;51.528;7.240;2023-05-07T11:00:59;8.57;;;7.23;;
23258;SDS011;11798;51.528;7.240;2023-05-07T11:03:26;7.78;;;5.63;;
23258;SDS011;11798;51.528;7.240;2023-05-07T11:11:18;7.43;;;5.95;;
23258;SDS011;11798;51.528;7.240;2023-05-07T11:13:47;7.95;;;7.15;;
23258;SDS011;11798;51.528;7.240;2023-05-07T11:16:17;7.95;;;7.05;;
23258;SDS011;11798;51.528;7.240;2023-05-07T11:18:48;9.23;;;7.35;;
23258;SDS011;11798;51.528;7.240;2023-05-07T11:24:01;9.32;;;7.43;;
23258;SDS011;11798;51.528;7.240;2023-05-07T11:26:28;7.13;;;6.38;;
23258;SDS011;11798;51.528;7.240;2023-05-07T11:29:14;6.80;;;6.10;;
23258;SDS011;11798;51.528;7.240;2023-05-07T11:31:42;7.70;;;6.00;;
23258;SDS011;11798;51.528;7.240;2023-05-07T11:34:08;9.20;;;5.80;;
23258;SDS011;11798;51.528;7.240;2023-05-07T11:36:33;8.15;;;7.00;;
23258;SDS011;11798;51.528;7.240;2023-05-07T11:38:59;7.07;;;6.10;;
23258;SDS011;11798;51.528;7.240;2023-05-07T11:41:35;5.95;;;5.35;;
23258;SDS011;11798;51.528;7.240;2023-05-07T11:44:01;6.40;;;5.75;;
23258;SDS011;11798;51.528;7.240;2023-05-07T11:46:28;6.78;;;5.70;;
23258;SDS011;11798;51.528;7.240;2023-05-07T11:48:54;7.28;;;6.30;;
23258;SDS011;11798;51.528;7.240;2023-05-07T11:51:22;7.30;;;5.53;;
23258;SDS011;11798;51.528;7.240;2023-05-07T11:53:49;6.60;;;5.32;;
23258;SDS011;11798;51.528;7.240;2023-05-07T11:56:16;7.70;;;6.90;;
23258;SDS011;11798;51.528;7.240;2023-05-07T11:58:42;6.80;;;6.10;;
23258;SDS011;11798;51.528;7.240;2023-05-07T12:01:09;11.02;;;8.27;;
23258;SDS011;11798;51.528;7.240;2023-05-07T12:03:36;8.43;;;7.60;;
23258;SDS011;11798;51.528;7.240;2023-05-07T12:06:06;8.48;;;7.57;;
23258;SDS011;11798;51.528;7.240;2023-05-07T12:08:32;8.98;;;8.10;;
23258;SDS011;11798;51.528;7.240;2023-05-07T12:10:57;9.13;;;8.23;;
23258;SDS011;11798;51.528;7.240;2023-05-07T12:13:24;7.32;;;6.28;;
23258;SDS011;11798;51.528;7.240;2023-05-07T12:15:51;7.15;;;6.43;;
23258;SDS011;11798;51.528;7.240;2023-05-07T12:18:28;11.38;;;6.40;;
23258;SDS011;11798;51.528;7.240;2023-05-07T12:20:54;6.65;;;5.85;;
23258;SDS011;11798;51.528;7.240;2023-05-07T12:23:21;8.70;;;6.90;;
23258;SDS011;11798;51.528;7.240;2023-05-07T12:25:47;9.15;;;8.25;;
23258;SDS011;11798;51.528;7.240;2023-05-07T12:28:17;7.63;;;6.82;;
23258;SDS011;11798;51.528;7.240;2023-05-07T12:30:44;8.32;;;6.10;;
23258;SDS011;11798;51.528;7.240;2023-05-07T12:33:11;6.47;;;5.88;;
23258;SDS011;11798;51.528;7.240;2023-05-07T12:35:37;6.95;;;5.90;;
23258;SDS011;11798;51.528;7.240;2023-05-07T12:38:13;6.65;;;6.05;;
23258;SDS011;11798;51.528;7.240;2023-05-07T12:40:44;7.80;;;5.32;;
23258;SDS011;11798;51.528;7.240;2023-05-07T12:43:15;5.82;;;5.22;;
23258;SDS011;11798;51.528;7.240;2023-05-07T12:45:42;6.63;;;5.50;;
23258;SDS011;11798;51.528;7.240;2023-05-07T12:48:09;6.68;;;5.10;;
23258;SDS011;11798;51.528;7.240;2023-05-07T12:50:35;7.35;;;5.28;;
23258;SDS011;11798;51.528;7.240;2023-05-07T12:53:03;6.72;;;4.35;;
23258;SDS011;11798;51.528;7.240;2023-05-07T12:55:31;6.40;;;4.65;;
23258;SDS011;11798;51.528;7.240;2023-05-07T12:57:57;3.97;;;3.58;;
23258;SDS011;11798;51.528;7.240;2023-05-07T13:00:33;8.00;;;5.10;;
23258;SDS011;11798;51.528;7.240;2023-05-07T13:03:00;6.57;;;4.90;;
23258;SDS011;11798;51.528;7.240;2023-05-07T13:05:25;5.82;;;4.50;;
23258;SDS011;11798;51.528;7.240;2023-05-07T13:07:54;4.65;;;4.13;;
23258;SDS011;11798;51.528;7.240;2023-05-07T13:10:21;3.88;;;3.47;;
23258;SDS011;11798;51.528;7.240;2023-05-07T13:12:48;4.05;;;3.20;;
23258;SDS011;11798;51.528;7.240;2023-05-07T13:15:14;4.28;;;3.88;;
23258;SDS011;11798;51.528;7.240;2023-05-07T13:17:40;6.18;;;4.03;;
23258;SDS011;11798;51.528;7.240;2023-05-07T13:20:06;7.85;;;4.72;;
23258;SDS011;11798;51.528;7.240;2023-05-07T13:22:33;8.13;;;4.85;;
23258;SDS011;11798;51.528;7.240;2023-05-07T13:24:58;6.53;;;5.40;;
23258;SDS011;11798;51.528;7.240;2023-05-07T13:27:24;6.57;;;5.95;;
23258;SDS011;11798;51.528;7.240;2023-05-07T13:29:50;6.90;;;5.72;;
23258;SDS011;11798;51.528;7.240;2023-05-07T13:32:16;6.45;;;5.70;;
23258;SDS011;11798;51.528;7.240;2023-05-07T13:34:42;6.30;;;5.13;;
23258;SDS011;11798;51.528;7.240;2023-05-07T13:37:08;6.25;;;5.07;;
23258;SDS011;11798;51.528;7.240;2023-05-07T13:39:33;6.65;;;5.40;;
23258;SDS011;11798;51.528;7.240;2023-05-07T13:41:59;5.85;;;4.82;;
23258;SDS011;11798;51.528;7.240;2023-05-07T13:44:26;6.18;;;5.57;;
23258;SDS011;11798;51.528;7.240;2023-05-07T13:46:51;6.97;;;6.20;;
23258;SDS011;11798;51.528;7.240;2023-05-07T13:49:17;7.00;;;6.32;;
23258;SDS011;11798;51.528;7.240;2023-05-07T13:51:43;7.13;;;6.43;;
23258;SDS011;11798;51.528;7.240;2023-05-07T13:54:08;6.30;;;5.70;;
23258;SDS011;11798;51.528;7.240;2023-05-07T13:56:34;5.63;;;5.13;;
23258;SDS011;11798;51.528;7.240;2023-05-07T13:59:00;6.18;;;5.15;;
23258;SDS011;11798;51.528;7.240;2023-05-07T14:01:25;6.28;;;5.38;;
23258;SDS011;11798;51.528;7.240;2023-05-07T14:03:51;7.75;;;6.95;;
23258;SDS011;11798;51.528;7.240;2023-05-07T14:06:17;7.55;;;6.82;;
23258;SDS011;11798;51.528;7.240;2023-05-07T14:08:42;8.00;;;6.72;;
23258;SDS011;11798;51.528;7.240;2023-05-07T14:11:08;8.93;;;6.85;;
23258;SDS011;11798;51.528;7.240;2023-05-07T14:13:34;10.95;;;8.35;;
23258;SDS011;11798;51.528;7.240;2023-05-07T14:15:59;10.02;;;7.65;;
23258;SDS011;11798;51.528;7.240;2023-05-07T14:18:25;10.48;;;9.00;;
23258;SDS011;11798;51.528;7.240;2023-05-07T14:20:51;10.27;;;8.53;;
23258;SDS011;11798;51.528;7.240;2023-05-07T14:23:17;10.23;;;8.00;;
23258;SDS011;11798;51.528;7.240;2023-05-07T14:25:44;10.05;;;8.35;;
23258;SDS011;11798;51.528;7.240;2023-05-07T14:28:12;10.25;;;8.50;;
23258;SDS011;11798;51.528;7.240;2023-05-07T14:30:38;10.57;;;9.47;;
23258;SDS011;11798;51.528;7.240;2023-05-07T14:33:04;9.80;;;8.80;;
23258;SDS011;11798;51.528;7.240;2023-05-07T14:35:30;10.75;;;9.27;;
23258;SDS011;11798;51.528;7.240;2023-05-07T14:37:55;9.43;;;8.53;;
23258;SDS011;11798;51.528;7.240;2023-05-07T14:40:21;10.90;;;8.73;;
23258;SDS011;11798;51.528;7.240;2023-05-07T14:42:46;9.27;;;7.77;;
23258;SDS011;11798;51.528;7.240;2023-05-07T14:45:12;11.23;;;8.60;;
23258;SDS011;11798;51.528;7.240;2023-05-07T14:47:37;9.60;;;8.60;;